Itaguara, Brazil
Current Conditions -  °F | °C
As of 10:00 AM on Friday 19 Dec 2014 (Local Time) from SBPR Reporting Station
Few Clouds Few Clouds  
Wind Chill: 81°   Ceiling: Unl
Heat Index: 82°   Visibility: 6mi
Dew Point: 63°   Wind: 6mph
Humidity: 54%   Direction: 70°ENE
Pressure: 30"   Gusts: NA
Location:  20.39°S, 44.49°W
Report Text: SBPR 191200Z 07005KT 9999 FEW025 27/17 Q1016
Loading
Personal Weather Stations






























Interactive Weather Map New forecast layout! Learn more

10-Day Weather Forecast

Advertisements
Track Severe Weather on mobile